createdAt,value
2018-10-11T00:01:01.764Z,12.70
2018-10-11T00:03:31.750Z,12.80
2018-10-11T00:06:01.645Z,12.80
2018-10-11T00:08:31.878Z,12.90
2018-10-11T00:11:01.827Z,12.70
2018-10-11T00:13:31.861Z,12.60
2018-10-11T00:16:01.723Z,12.50
2018-10-11T00:18:31.955Z,12.40
2018-10-11T00:21:01.862Z,12.40
2018-10-11T00:23:31.923Z,12.50
2018-10-11T00:26:01.855Z,12.60
2018-10-11T00:28:31.986Z,12.60
2018-10-11T00:31:01.994Z,12.50
2018-10-11T00:33:31.951Z,12.40
2018-10-11T00:36:02.027Z,12.20
2018-10-11T00:38:32.034Z,12.10
2018-10-11T00:41:01.938Z,11.90
2018-10-11T00:43:32.122Z,11.90
2018-10-11T00:46:01.982Z,12.00
2018-10-11T00:48:32.030Z,12.00
2018-10-11T00:51:02.022Z,11.90
2018-10-11T00:53:32.021Z,11.90
2018-10-11T00:56:02.111Z,11.80
2018-10-11T00:58:31.993Z,11.70
2018-10-11T01:01:02.038Z,11.70
2018-10-11T01:03:32.115Z,11.90
2018-10-11T01:06:02.189Z,11.90
2018-10-11T01:08:32.210Z,12.00
2018-10-11T01:11:02.228Z,12.20
2018-10-11T01:13:32.206Z,12.10
2018-10-11T01:16:02.233Z,12.00
2018-10-11T01:18:31.769Z,12.30
2018-10-11T01:21:02.109Z,12.10
2018-10-11T01:23:32.314Z,11.70
2018-10-11T01:26:02.266Z,11.70
2018-10-11T01:28:32.358Z,11.60
2018-10-11T01:31:07.722Z,11.60
2018-10-11T01:33:36.949Z,11.50
2018-10-11T01:36:06.221Z,11.40
2018-10-11T01:38:35.530Z,11.40
2018-10-11T01:41:04.725Z,11.30
2018-10-11T01:43:33.997Z,11.40
2018-10-11T01:46:03.182Z,11.50
2018-10-11T01:48:32.414Z,11.40
2018-10-11T01:51:02.485Z,11.40
2018-10-11T01:53:32.553Z,11.50
2018-10-11T01:56:02.579Z,11.50
2018-10-11T01:58:32.512Z,11.60
2018-10-11T02:01:02.616Z,11.60
2018-10-11T02:03:32.675Z,11.60
2018-10-11T02:06:02.635Z,11.70
2018-10-11T02:08:32.686Z,11.80
2018-10-11T02:11:02.734Z,12.00
2018-10-11T02:13:32.690Z,12.00
2018-10-11T02:16:02.705Z,11.80
2018-10-11T02:18:32.861Z,11.80
2018-10-11T02:21:02.802Z,11.70
2018-10-11T02:23:32.730Z,11.70
2018-10-11T02:26:02.810Z,11.70
2018-10-11T02:28:32.886Z,11.80
2018-10-11T02:31:02.775Z,11.90
2018-10-11T02:33:32.765Z,12.10
2018-10-11T02:36:02.927Z,12.20
2018-10-11T02:38:32.861Z,12.40
2018-10-11T02:41:02.985Z,12.90
2018-10-11T02:43:32.962Z,13.20
2018-10-11T02:46:02.973Z,13.40
2018-10-11T02:48:32.955Z,13.40
2018-10-11T02:51:03.069Z,13.60
2018-10-11T02:53:32.857Z,13.70
2018-10-11T02:56:03.413Z,13.80
2018-10-11T02:58:49.937Z,14.10
2018-10-11T03:01:19.113Z,14.30
2018-10-11T03:03:48.214Z,14.40
2018-10-11T03:06:17.327Z,14.50
2018-10-11T03:08:46.476Z,14.40
2018-10-11T03:11:15.600Z,14.10
2018-10-11T03:13:44.814Z,14.00
2018-10-11T03:16:16.248Z,13.80
2018-10-11T03:18:45.462Z,13.90
2018-10-11T03:21:14.726Z,13.70
2018-10-11T03:23:44.030Z,13.70
2018-10-11T03:26:13.350Z,13.80
2018-10-11T03:28:42.544Z,13.80
2018-10-11T03:31:11.711Z,13.70
2018-10-11T03:33:47.677Z,13.60
2018-10-11T03:36:16.945Z,13.80
2018-10-11T03:38:46.220Z,14.00
2018-10-11T03:41:15.497Z,13.80
2018-10-11T03:43:44.755Z,13.60
2018-10-11T03:46:14.033Z,13.50
2018-10-11T03:48:43.102Z,13.40
2018-10-11T03:51:12.582Z,13.30
2018-10-11T03:53:41.834Z,13.20
2018-10-11T03:56:11.021Z,13.20
2018-10-11T03:58:40.295Z,13.30
2018-10-11T04:01:09.498Z,13.40
2018-10-11T04:03:38.693Z,13.40
2018-10-11T04:06:08.111Z,13.20
2018-10-11T04:08:37.331Z,13.00
2018-10-11T04:11:06.551Z,13.10
2018-10-11T04:13:35.686Z,13.20
2018-10-11T04:16:04.922Z,12.90
2018-10-11T04:18:34.170Z,12.80
2018-10-11T04:21:03.675Z,12.70
2018-10-11T04:23:33.790Z,12.40
2018-10-11T04:26:03.795Z,12.30
2018-10-11T04:28:34.596Z,12.10
2018-10-11T04:31:03.814Z,11.90
2018-10-11T04:33:33.771Z,11.90
2018-10-11T04:36:03.857Z,11.90
2018-10-11T04:38:33.844Z,11.80
2018-10-11T04:41:03.936Z,11.70
2018-10-11T04:43:33.979Z,11.70
2018-10-11T04:46:03.703Z,11.90
2018-10-11T04:48:34.026Z,11.80
2018-10-11T04:51:03.923Z,11.80
2018-10-11T04:53:34.209Z,11.80
2018-10-11T04:56:04.117Z,11.60
2018-10-11T04:58:34.007Z,11.70
2018-10-11T05:01:04.129Z,12.00
2018-10-11T05:03:34.085Z,11.70
2018-10-11T05:06:04.101Z,11.60
2018-10-11T05:08:34.059Z,11.60
2018-10-11T05:11:03.999Z,11.60
2018-10-11T05:13:42.687Z,11.60
2018-10-11T05:16:11.877Z,11.60
2018-10-11T05:18:43.272Z,11.50
2018-10-11T05:21:12.490Z,11.40
2018-10-11T05:23:43.392Z,11.40
2018-10-11T05:26:13.729Z,11.50
2018-10-11T05:28:43.089Z,11.60
2018-10-11T05:31:12.387Z,11.70
2018-10-11T05:33:42.549Z,11.50
2018-10-11T05:36:12.862Z,11.40
2018-10-11T05:38:42.416Z,11.20
2018-10-11T05:41:12.011Z,11.20
2018-10-11T05:43:41.186Z,11.20
2018-10-11T05:46:22.217Z,11.20
2018-10-11T05:48:51.676Z,11.20
2018-10-11T05:51:21.468Z,11.30
2018-10-11T05:53:52.119Z,11.40
2018-10-11T05:56:22.107Z,11.60
2018-10-11T05:58:51.625Z,11.60
2018-10-11T06:01:20.845Z,11.60
2018-10-11T06:03:49.948Z,11.80
2018-10-11T06:06:19.031Z,11.80
2018-10-11T06:08:48.126Z,11.90
2018-10-11T06:11:17.733Z,12.00
2018-10-11T06:13:48.458Z,12.10
2018-10-11T06:16:17.611Z,12.10
2018-10-11T06:18:46.711Z,12.10
2018-10-11T06:21:16.022Z,12.10
2018-10-11T06:23:45.118Z,12.10
2018-10-11T06:26:14.811Z,12.30
2018-10-11T06:28:44.274Z,12.40
2018-10-11T06:31:13.331Z,12.30
2018-10-11T06:33:43.435Z,12.40
2018-10-11T06:36:12.742Z,12.40
2018-10-11T06:38:41.745Z,12.40
2018-10-11T06:41:10.793Z,12.50
2018-10-11T06:43:40.557Z,12.80
2018-10-11T06:46:09.746Z,12.80
2018-10-11T06:48:39.070Z,12.80
2018-10-11T06:51:08.159Z,12.80
2018-10-11T06:53:37.234Z,12.80
2018-10-11T06:56:06.726Z,13.00
2018-10-11T06:58:36.067Z,13.10
2018-10-11T07:01:05.250Z,13.30
2018-10-11T07:03:35.263Z,13.10
2018-10-11T07:06:05.368Z,13.30
2018-10-11T07:08:35.209Z,13.60
2018-10-11T07:11:05.394Z,13.50
2018-10-11T07:13:35.295Z,13.60
2018-10-11T07:16:05.634Z,13.60
2018-10-11T07:18:35.445Z,13.80
2018-10-11T07:21:05.553Z,13.90
2018-10-11T07:23:35.414Z,14.00
2018-10-11T07:26:05.605Z,14.10
2018-10-11T07:28:35.567Z,14.10
2018-10-11T07:31:05.590Z,14.30
2018-10-11T07:33:35.686Z,14.30
2018-10-11T07:36:05.764Z,14.50
2018-10-11T07:38:35.694Z,14.70
2018-10-11T07:41:05.782Z,14.90
2018-10-11T07:43:35.606Z,14.90
2018-10-11T07:46:05.874Z,15.20
2018-10-11T07:48:35.756Z,15.40
2018-10-11T07:51:05.798Z,15.50
2018-10-11T07:53:35.912Z,15.60
2018-10-11T07:56:05.878Z,15.70
2018-10-11T07:58:35.850Z,15.70
2018-10-11T08:01:06.108Z,15.90
2018-10-11T08:03:35.984Z,16.00
2018-10-11T08:06:05.940Z,16.20
2018-10-11T08:08:36.052Z,16.30
2018-10-11T08:11:06.280Z,16.40
2018-10-11T08:13:36.092Z,16.70
2018-10-11T08:16:06.630Z,16.80
2018-10-11T08:18:36.155Z,16.90
2018-10-11T08:21:06.158Z,16.80
2018-10-11T08:23:36.326Z,16.90
2018-10-11T08:26:06.940Z,17.30
2018-10-11T08:28:36.236Z,17.30
2018-10-11T08:31:06.505Z,17.30
2018-10-11T08:33:36.355Z,17.20
2018-10-11T08:36:06.255Z,17.60
2018-10-11T08:38:36.324Z,17.90
2018-10-11T08:41:06.564Z,17.90
2018-10-11T08:43:36.358Z,17.90
2018-10-11T08:46:06.594Z,17.90
2018-10-11T08:48:36.458Z,17.80
2018-10-11T08:51:06.431Z,17.90
2018-10-11T08:53:36.541Z,17.90
2018-10-11T08:56:06.657Z,18.00
2018-10-11T08:58:36.646Z,18.20
2018-10-11T09:01:06.602Z,18.20
2018-10-11T09:03:36.623Z,18.40
2018-10-11T09:06:06.549Z,18.80
2018-10-11T09:08:36.494Z,18.90
2018-10-11T09:11:07.016Z,19.00
2018-10-11T09:13:36.722Z,19.10
2018-10-11T09:16:06.763Z,19.40
2018-10-11T09:18:36.782Z,19.50
2018-10-11T09:21:07.263Z,19.40
2018-10-11T09:23:36.815Z,19.50
2018-10-11T09:26:06.907Z,19.60
2018-10-11T09:28:36.861Z,19.80
2018-10-11T09:31:07.133Z,19.80
2018-10-11T09:33:36.952Z,19.80
2018-10-11T09:36:06.970Z,20.00
2018-10-11T09:38:37.082Z,20.00
2018-10-11T09:41:07.253Z,20.10
2018-10-11T09:43:37.113Z,20.10
2018-10-11T09:46:07.097Z,20.20
2018-10-11T09:48:37.207Z,20.10
2018-10-11T09:51:08.073Z,20.20
2018-10-11T09:53:37.264Z,20.40
2018-10-11T09:56:07.350Z,20.30
2018-10-11T09:58:37.169Z,20.40
2018-10-11T10:01:12.537Z,20.40
2018-10-11T10:03:41.681Z,20.40
2018-10-11T10:06:10.922Z,20.70
2018-10-11T10:08:40.058Z,20.60
2018-10-11T10:11:09.247Z,20.60
2018-10-11T10:13:38.456Z,20.70
2018-10-11T10:16:07.688Z,20.60
2018-10-11T10:18:37.527Z,20.70
2018-10-11T10:21:07.567Z,20.80
2018-10-11T10:23:37.601Z,20.90
2018-10-11T10:26:07.827Z,21.00
2018-10-11T10:28:37.702Z,21.00
2018-10-11T10:31:07.718Z,21.30
2018-10-11T10:33:37.686Z,21.40
2018-10-11T10:36:07.796Z,21.40
2018-10-11T10:38:37.722Z,21.30
2018-10-11T10:41:07.805Z,21.40
2018-10-11T10:43:37.810Z,21.40
2018-10-11T10:46:07.923Z,21.40
2018-10-11T10:48:37.941Z,21.40
2018-10-11T10:51:07.953Z,21.40
2018-10-11T10:53:37.894Z,21.50
2018-10-11T10:56:08.018Z,21.80
2018-10-11T10:58:37.986Z,21.80
2018-10-11T11:01:08.444Z,21.80
2018-10-11T11:03:38.150Z,22.00
2018-10-11T11:06:08.274Z,22.00
2018-10-11T11:08:38.089Z,22.00
2018-10-11T11:11:08.529Z,21.90
2018-10-11T11:13:38.502Z,21.90
2018-10-11T11:16:08.665Z,22.00
2018-10-11T11:18:38.275Z,22.10
2018-10-11T11:21:08.974Z,21.90
2018-10-11T11:23:38.337Z,21.90
2018-10-11T11:26:08.283Z,21.90
2018-10-11T11:28:38.435Z,21.80
2018-10-11T11:31:08.580Z,21.80
2018-10-11T11:33:38.493Z,21.90
2018-10-11T11:36:08.610Z,21.80
2018-10-11T11:38:38.611Z,21.80
2018-10-11T11:41:08.511Z,21.80
2018-10-11T11:43:38.718Z,21.90
2018-10-11T11:46:08.798Z,21.80
2018-10-11T11:48:38.783Z,21.70
2018-10-11T11:51:09.915Z,22.00
2018-10-11T11:53:40.058Z,21.90
2018-10-11T11:56:09.363Z,21.90
2018-10-11T11:58:39.378Z,22.00
2018-10-11T12:01:09.942Z,21.90
2018-10-11T12:03:39.726Z,21.90
2018-10-11T12:06:09.642Z,22.00
2018-10-11T12:08:39.906Z,21.80
2018-10-11T12:11:09.238Z,21.90
2018-10-11T12:13:38.985Z,22.00
2018-10-11T12:16:09.106Z,22.00
2018-10-11T12:18:39.169Z,22.20
2018-10-11T12:21:09.208Z,22.10
2018-10-11T12:23:39.310Z,22.10
2018-10-11T12:26:09.191Z,22.10
2018-10-11T12:28:39.398Z,22.10
2018-10-11T12:31:09.460Z,22.30
2018-10-11T12:33:39.406Z,22.40
2018-10-11T12:36:09.503Z,22.50
2018-10-11T12:38:39.584Z,22.40
2018-10-11T12:41:09.511Z,22.40
2018-10-11T12:43:39.552Z,22.60
2018-10-11T12:46:09.628Z,22.70
2018-10-11T12:48:39.607Z,22.60
2018-10-11T12:51:09.772Z,22.60
2018-10-11T12:53:43.355Z,22.80
2018-10-11T12:56:09.705Z,22.90
2018-10-11T12:58:39.783Z,23.00
2018-10-11T13:01:09.879Z,23.10
2018-10-11T13:03:39.821Z,23.00
2018-10-11T13:06:09.935Z,23.00
2018-10-11T13:08:39.953Z,23.00
2018-10-11T13:11:09.911Z,23.00
2018-10-11T13:13:42.868Z,23.00
2018-10-11T13:16:10.094Z,23.20
2018-10-11T13:18:40.082Z,23.50
2018-10-11T13:21:10.228Z,23.50
2018-10-11T13:23:40.238Z,23.30
2018-10-11T13:26:10.094Z,23.10
2018-10-11T13:28:40.216Z,22.80
2018-10-11T13:31:10.372Z,23.00
2018-10-11T13:33:40.443Z,22.80
2018-10-11T13:36:10.489Z,22.60
2018-10-11T13:38:40.455Z,22.50
2018-10-11T13:41:10.915Z,22.50
2018-10-11T13:43:40.436Z,22.50
2018-10-11T13:46:10.594Z,22.40
2018-10-11T13:48:40.529Z,22.40
2018-10-11T13:51:10.523Z,22.30
2018-10-11T13:53:40.508Z,22.50
2018-10-11T13:56:10.486Z,22.40
2018-10-11T13:58:40.782Z,22.40
2018-10-11T14:01:10.595Z,22.30
2018-10-11T14:03:40.625Z,22.30
2018-10-11T14:06:10.655Z,22.30
2018-10-11T14:08:40.688Z,22.60
2018-10-11T14:11:10.891Z,22.70
2018-10-11T14:13:40.797Z,22.60
2018-10-11T14:16:10.767Z,22.40
2018-10-11T14:18:40.880Z,22.40
2018-10-11T14:21:10.801Z,22.30
2018-10-11T14:23:41.016Z,22.30
2018-10-11T14:26:10.950Z,22.30
2018-10-11T14:28:40.860Z,22.40
2018-10-11T14:31:11.017Z,22.30
2018-10-11T14:33:40.060Z,22.20
2018-10-11T14:36:09.330Z,22.20
2018-10-11T14:38:38.365Z,22.20
2018-10-11T14:41:07.757Z,22.00
2018-10-11T14:43:36.938Z,22.00
2018-10-11T14:46:06.306Z,22.10
2018-10-11T14:48:35.540Z,22.10
2018-10-11T14:51:04.804Z,22.10
2018-10-11T14:53:34.399Z,22.20
2018-10-11T14:56:03.603Z,22.20
2018-10-11T14:58:32.794Z,22.20
2018-10-11T15:01:02.194Z,22.10
2018-10-11T15:03:31.334Z,22.00
2018-10-11T15:06:00.517Z,21.80
2018-10-11T15:08:29.702Z,21.80
2018-10-11T15:10:59.005Z,21.60
2018-10-11T15:13:28.276Z,21.60
2018-10-11T15:15:57.441Z,21.70
2018-10-11T15:18:27.499Z,21.70
2018-10-11T15:20:56.734Z,21.50
2018-10-11T15:23:25.960Z,21.40
2018-10-11T15:25:55.178Z,21.30
2018-10-11T15:28:24.431Z,21.20
2018-10-11T15:30:53.850Z,21.00
2018-10-11T15:33:23.103Z,21.00
2018-10-11T15:35:52.255Z,20.90
2018-10-11T15:38:21.461Z,20.90
2018-10-11T15:40:50.697Z,20.80
2018-10-11T15:43:19.854Z,20.80
2018-10-11T15:45:49.074Z,20.70
2018-10-11T15:48:18.291Z,20.70
2018-10-11T15:50:47.526Z,20.70
2018-10-11T15:53:16.787Z,20.50
2018-10-11T15:55:46.022Z,20.50
2018-10-11T15:58:15.212Z,20.40
2018-10-11T16:00:44.446Z,20.40
2018-10-11T16:03:13.590Z,20.40
2018-10-11T16:05:42.853Z,20.30
2018-10-11T16:08:11.918Z,20.20
2018-10-11T16:10:42.050Z,20.10
2018-10-11T16:13:11.971Z,20.00
2018-10-11T16:15:42.054Z,19.90
2018-10-11T16:18:12.076Z,19.80
2018-10-11T16:20:42.156Z,19.70
2018-10-11T16:23:12.120Z,19.60
2018-10-11T16:25:42.136Z,19.60
2018-10-11T16:28:12.149Z,19.60
2018-10-11T16:30:42.159Z,19.50
2018-10-11T16:33:12.313Z,19.40
2018-10-11T16:35:42.251Z,19.40
2018-10-11T16:38:12.258Z,19.40
2018-10-11T16:40:42.303Z,19.30
2018-10-11T16:43:12.328Z,19.30
2018-10-11T16:45:42.790Z,19.20
2018-10-11T16:53:24.385Z,19.00
2018-10-11T16:55:53.953Z,18.90
2018-10-11T16:58:23.619Z,18.80
2018-10-11T17:00:53.112Z,18.80
2018-10-11T17:03:23.999Z,18.80
2018-10-11T17:05:53.771Z,18.90
2018-10-11T17:08:23.424Z,18.70
2018-10-11T17:10:52.879Z,18.80
2018-10-11T17:13:22.205Z,18.80
2018-10-11T17:15:51.510Z,18.80
2018-10-11T17:18:20.694Z,18.90
2018-10-11T17:20:50.060Z,18.80
2018-10-11T17:23:19.310Z,18.70
2018-10-11T17:25:48.753Z,18.80
2018-10-11T17:28:18.031Z,18.70
2018-10-11T17:30:47.410Z,18.60
2018-10-11T17:33:16.573Z,18.50
2018-10-11T17:35:45.833Z,18.40
2018-10-11T17:38:15.192Z,18.20
2018-10-11T17:40:44.567Z,18.30
2018-10-11T17:43:13.870Z,18.30
2018-10-11T17:45:43.016Z,18.20
2018-10-11T17:48:13.051Z,18.20
2018-10-11T17:50:43.158Z,18.20
2018-10-11T17:53:13.063Z,18.30
2018-10-11T17:55:43.223Z,18.30
2018-10-11T17:58:13.385Z,18.50
2018-10-11T18:00:43.357Z,18.40
2018-10-11T18:03:13.315Z,18.50
2018-10-11T18:05:43.334Z,18.30
2018-10-11T18:08:13.517Z,18.20
2018-10-11T18:10:43.594Z,18.10
2018-10-11T18:13:13.461Z,18.00
2018-10-11T18:15:43.582Z,17.90
2018-10-11T18:18:13.689Z,17.90
2018-10-11T18:20:43.514Z,17.90
2018-10-11T18:23:13.624Z,17.90
2018-10-11T18:25:43.507Z,17.90
2018-10-11T18:28:13.518Z,17.90
2018-10-11T18:30:43.542Z,17.90
2018-10-11T18:33:13.681Z,17.90
2018-10-11T18:35:43.716Z,17.90
2018-10-11T18:38:13.743Z,17.80
2018-10-11T18:40:43.565Z,17.70
2018-10-11T18:43:13.727Z,17.70
2018-10-11T18:45:43.808Z,17.60
2018-10-11T18:48:13.880Z,17.50
2018-10-11T18:50:43.934Z,17.40
2018-10-11T18:53:13.986Z,17.40
2018-10-11T18:55:43.918Z,17.40
2018-10-11T18:58:14.023Z,17.40
2018-10-11T19:00:44.000Z,17.30
2018-10-11T19:03:13.952Z,17.30
2018-10-11T19:05:44.277Z,17.20
2018-10-11T19:08:14.003Z,17.30
2018-10-11T19:10:44.100Z,17.20
2018-10-11T19:13:14.124Z,17.00
2018-10-11T19:15:44.242Z,17.00
2018-10-11T19:18:14.222Z,16.90
2018-10-11T19:20:44.265Z,16.90
2018-10-11T19:23:14.243Z,17.10
2018-10-11T19:25:44.377Z,17.10
2018-10-11T19:28:14.220Z,17.00
2018-10-11T19:30:44.174Z,17.00
2018-10-11T19:33:14.438Z,17.10
2018-10-11T19:35:44.305Z,17.00
2018-10-11T19:38:14.317Z,16.90
2018-10-11T19:40:44.425Z,17.00
2018-10-11T19:43:14.403Z,16.90
2018-10-11T19:45:44.533Z,16.90
2018-10-11T19:48:14.447Z,16.90
2018-10-11T19:50:44.537Z,16.80
2018-10-11T19:53:14.521Z,16.80
2018-10-11T19:55:44.488Z,16.80
2018-10-11T19:58:15.119Z,16.80
2018-10-11T20:00:44.820Z,16.90
2018-10-11T20:03:15.003Z,16.80
2018-10-11T20:05:44.887Z,16.80
2018-10-11T20:08:15.057Z,16.80
2018-10-11T20:10:44.955Z,16.80
2018-10-11T20:13:15.084Z,16.80
2018-10-11T20:15:45.610Z,16.80
2018-10-11T20:18:14.950Z,16.80
2018-10-11T20:20:45.031Z,16.70
2018-10-11T20:23:15.254Z,16.70
2018-10-11T20:25:45.055Z,16.70
2018-10-11T20:28:14.994Z,16.70
2018-10-11T20:30:45.130Z,16.70
2018-10-11T20:33:15.083Z,16.80
2018-10-11T20:35:45.162Z,16.80
2018-10-11T20:38:15.118Z,16.90
2018-10-11T20:40:45.183Z,16.90
2018-10-11T20:43:15.316Z,16.90
2018-10-11T20:45:45.282Z,16.90
2018-10-11T20:48:15.337Z,16.90
2018-10-11T20:50:45.354Z,16.90
2018-10-11T20:53:17.443Z,16.90
2018-10-11T20:55:46.672Z,16.80
2018-10-11T20:58:15.846Z,16.80
2018-10-11T21:00:45.426Z,16.80
2018-10-11T21:03:15.558Z,16.80
2018-10-11T21:05:45.699Z,17.10
2018-10-11T21:08:15.681Z,17.70
2018-10-11T21:10:45.640Z,17.90
2018-10-11T21:13:15.703Z,17.60
2018-10-11T21:15:45.679Z,17.30
2018-10-11T21:18:15.714Z,17.30
2018-10-11T21:20:45.651Z,17.50
2018-10-11T21:23:15.666Z,17.50
2018-10-11T21:25:45.897Z,17.30
2018-10-11T21:28:16.000Z,17.20
2018-10-11T21:30:45.862Z,17.10
2018-10-11T21:33:15.943Z,17.00
2018-10-11T21:35:45.965Z,17.00
2018-10-11T21:38:15.946Z,16.90
2018-10-11T21:40:45.898Z,16.90
2018-10-11T21:43:16.098Z,16.80
2018-10-11T21:45:46.126Z,16.80
2018-10-11T21:48:16.071Z,16.80
2018-10-11T21:50:46.099Z,16.70
2018-10-11T21:53:16.225Z,16.70
2018-10-11T21:55:46.214Z,16.70
2018-10-11T21:58:16.213Z,16.60
2018-10-11T22:00:51.579Z,16.60
2018-10-11T22:03:20.750Z,16.60
2018-10-11T22:05:49.850Z,16.70
2018-10-11T22:08:19.046Z,16.70
2018-10-11T22:10:48.219Z,16.60
2018-10-11T22:13:17.442Z,16.60
2018-10-11T22:15:46.602Z,16.60
2018-10-11T22:18:16.630Z,16.70
2018-10-11T22:20:46.696Z,16.70
2018-10-11T22:23:16.610Z,16.70
2018-10-11T22:25:46.647Z,16.70
2018-10-11T22:28:16.607Z,16.70
2018-10-11T22:30:46.701Z,16.70
2018-10-11T22:33:16.719Z,16.70
2018-10-11T22:35:46.917Z,16.80
2018-10-11T22:38:16.772Z,16.90
2018-10-11T22:40:46.774Z,16.90
2018-10-11T22:43:16.891Z,17.00
2018-10-11T22:45:46.754Z,17.60
2018-10-11T22:48:16.758Z,17.80
2018-10-11T22:50:46.926Z,17.80
2018-10-11T22:53:17.065Z,17.60
2018-10-11T22:55:47.006Z,17.30
2018-10-11T22:58:17.140Z,17.20
2018-10-11T23:00:47.214Z,17.10
2018-10-11T23:03:17.131Z,17.10
2018-10-11T23:05:47.187Z,17.10
2018-10-11T23:08:17.225Z,17.00
2018-10-11T23:10:47.250Z,17.00
2018-10-11T23:13:17.317Z,16.90
2018-10-11T23:15:47.388Z,16.90
2018-10-11T23:18:17.375Z,16.80
2018-10-11T23:20:47.450Z,16.80
2018-10-11T23:23:17.382Z,16.70
2018-10-11T23:25:47.491Z,16.70
2018-10-11T23:28:17.521Z,16.60
2018-10-11T23:30:47.594Z,16.50
2018-10-11T23:33:17.741Z,16.50
2018-10-11T23:35:47.647Z,16.40
2018-10-11T23:38:17.678Z,16.40
2018-10-11T23:40:47.654Z,16.40
2018-10-11T23:43:17.648Z,16.40
2018-10-11T23:45:47.730Z,16.40
2018-10-11T23:48:17.746Z,16.30
2018-10-11T23:50:47.906Z,16.30
2018-10-11T23:53:17.899Z,16.30
2018-10-11T23:55:47.958Z,16.30
2018-10-11T23:58:17.915Z,16.30
